sensor_id;sensor_type;location;lat;lon;timestamp;temperature;humidity
50162;DHT22;36061;48.116;11.612;2022-11-27T00:01:43;1.90;99.90
50162;DHT22;36061;48.116;11.612;2022-11-27T00:04:10;1.90;99.90
50162;DHT22;36061;48.116;11.612;2022-11-27T00:06:41;1.90;99.90
50162;DHT22;36061;48.116;11.612;2022-11-27T00:09:10;1.90;99.90
50162;DHT22;36061;48.116;11.612;2022-11-27T00:11:37;1.80;99.90
50162;DHT22;36061;48.116;11.612;2022-11-27T00:14:08;1.80;99.90
50162;DHT22;36061;48.116;11.612;2022-11-27T00:16:34;1.80;99.90
50162;DHT22;36061;48.116;11.612;2022-11-27T00:19:00;1.80;99.90
50162;DHT22;36061;48.116;11.612;2022-11-27T00:21:29;1.70;99.90
50162;DHT22;36061;48.116;11.612;2022-11-27T00:23:57;1.70;99.90
50162;DHT22;36061;48.116;11.612;2022-11-27T00:26:24;1.70;99.90
50162;DHT22;36061;48.116;11.612;2022-11-27T00:28:50;1.70;99.90
50162;DHT22;36061;48.116;11.612;2022-11-27T00:31:27;1.70;99.90
50162;DHT22;36061;48.116;11.612;2022-11-27T00:33:58;1.70;99.90
50162;DHT22;36061;48.116;11.612;2022-11-27T00:36:25;1.70;99.90
50162;DHT22;36061;48.116;11.612;2022-11-27T00:38:51;1.70;99.90
50162;DHT22;36061;48.116;11.612;2022-11-27T00:41:19;1.70;99.90
50162;DHT22;36061;48.116;11.612;2022-11-27T00:43:46;1.80;99.90
50162;DHT22;36061;48.116;11.612;2022-11-27T00:46:17;1.80;99.90
50162;DHT22;36061;48.116;11.612;2022-11-27T00:48:44;1.80;99.90
50162;DHT22;36061;48.116;11.612;2022-11-27T00:51:14;1.80;99.90
50162;DHT22;36061;48.116;11.612;2022-11-27T00:53:41;1.80;99.90
50162;DHT22;36061;48.116;11.612;2022-11-27T00:56:08;1.70;99.90
50162;DHT22;36061;48.116;11.612;2022-11-27T00:58:34;1.80;99.90
50162;DHT22;36061;48.116;11.612;2022-11-27T01:01:03;1.60;99.90
50162;DHT22;36061;48.116;11.612;2022-11-27T01:03:30;1.60;99.90
50162;DHT22;36061;48.116;11.612;2022-11-27T01:06:00;1.60;99.90
50162;DHT22;36061;48.116;11.612;2022-11-27T01:08:26;1.60;99.90
50162;DHT22;36061;48.116;11.612;2022-11-27T01:10:54;1.60;99.90
50162;DHT22;36061;48.116;11.612;2022-11-27T01:13:26;1.50;99.90
50162;DHT22;36061;48.116;11.612;2022-11-27T01:18:28;1.50;99.90
50162;DHT22;36061;48.116;11.612;2022-11-27T01:20:54;1.50;99.90
50162;DHT22;36061;48.116;11.612;2022-11-27T01:23:21;1.50;99.90
50162;DHT22;36061;48.116;11.612;2022-11-27T01:25:47;1.50;99.90
50162;DHT22;36061;48.116;11.612;2022-11-27T01:28:13;1.50;99.90
50162;DHT22;36061;48.116;11.612;2022-11-27T01:30:40;1.50;99.90
50162;DHT22;36061;48.116;11.612;2022-11-27T01:33:05;1.50;99.90
50162;DHT22;36061;48.116;11.612;2022-11-27T01:35:31;1.50;99.90
50162;DHT22;36061;48.116;11.612;2022-11-27T01:37:57;1.40;99.90
50162;DHT22;36061;48.116;11.612;2022-11-27T01:40:25;1.50;99.90
50162;DHT22;36061;48.116;11.612;2022-11-27T01:42:50;1.50;99.90
50162;DHT22;36061;48.116;11.612;2022-11-27T01:45:18;1.50;99.90
50162;DHT22;36061;48.116;11.612;2022-11-27T01:47:56;1.50;99.90
50162;DHT22;36061;48.116;11.612;2022-11-27T01:50:29;1.50;99.90
50162;DHT22;36061;48.116;11.612;2022-11-27T01:53:00;1.50;99.90
50162;DHT22;36061;48.116;11.612;2022-11-27T01:58:06;1.40;99.90
50162;DHT22;36061;48.116;11.612;2022-11-27T02:00:32;1.40;99.90
50162;DHT22;36061;48.116;11.612;2022-11-27T02:02:58;1.40;99.90
50162;DHT22;36061;48.116;11.612;2022-11-27T02:05:25;1.40;99.90
50162;DHT22;36061;48.116;11.612;2022-11-27T02:07:55;1.40;99.90
50162;DHT22;36061;48.116;11.612;2022-11-27T02:10:31;1.60;99.90
50162;DHT22;36061;48.116;11.612;2022-11-27T02:13:04;1.50;99.90
50162;DHT22;36061;48.116;11.612;2022-11-27T02:15:52;1.40;99.90
50162;DHT22;36061;48.116;11.612;2022-11-27T02:29:22;1.40;99.90
50162;DHT22;36061;48.116;11.612;2022-11-27T02:37:22;1.40;99.90
50162;DHT22;36061;48.116;11.612;2022-11-27T02:39:54;1.30;99.90
50162;DHT22;36061;48.116;11.612;2022-11-27T02:42:22;1.40;99.90
50162;DHT22;36061;48.116;11.612;2022-11-27T02:44:59;1.30;99.90
50162;DHT22;36061;48.116;11.612;2022-11-27T02:47:27;1.30;99.90
50162;DHT22;36061;48.116;11.612;2022-11-27T02:49:53;1.30;99.90
50162;DHT22;36061;48.116;11.612;2022-11-27T02:52:23;1.20;99.90
50162;DHT22;36061;48.116;11.612;2022-11-27T02:54:51;1.30;99.90
50162;DHT22;36061;48.116;11.612;2022-11-27T02:57:20;1.30;99.90
50162;DHT22;36061;48.116;11.612;2022-11-27T02:59:48;1.30;99.90
50162;DHT22;36061;48.116;11.612;2022-11-27T03:02:18;1.30;99.90
50162;DHT22;36061;48.116;11.612;2022-11-27T03:04:51;1.20;99.90
50162;DHT22;36061;48.116;11.612;2022-11-27T03:07:58;1.20;99.90
50162;DHT22;36061;48.116;11.612;2022-11-27T03:10:30;1.20;99.90
50162;DHT22;36061;48.116;11.612;2022-11-27T03:12:59;1.20;99.90
50162;DHT22;36061;48.116;11.612;2022-11-27T03:15:26;1.20;99.90
50162;DHT22;36061;48.116;11.612;2022-11-27T03:18:04;1.20;99.90
50162;DHT22;36061;48.116;11.612;2022-11-27T03:20:38;1.10;99.90
50162;DHT22;36061;48.116;11.612;2022-11-27T03:23:05;1.10;99.90
50162;DHT22;36061;48.116;11.612;2022-11-27T03:25:31;1.10;99.90
50162;DHT22;36061;48.116;11.612;2022-11-27T03:28:04;1.00;99.90
50162;DHT22;36061;48.116;11.612;2022-11-27T03:30:30;1.00;99.90
50162;DHT22;36061;48.116;11.612;2022-11-27T03:32:56;1.20;99.90
50162;DHT22;36061;48.116;11.612;2022-11-27T03:35:24;1.10;99.90
50162;DHT22;36061;48.116;11.612;2022-11-27T03:37:50;1.10;99.90
50162;DHT22;36061;48.116;11.612;2022-11-27T03:40:17;1.10;99.90
50162;DHT22;36061;48.116;11.612;2022-11-27T03:42:52;1.10;99.90
50162;DHT22;36061;48.116;11.612;2022-11-27T03:48:20;1.10;99.90
50162;DHT22;36061;48.116;11.612;2022-11-27T03:53:37;1.00;99.90
50162;DHT22;36061;48.116;11.612;2022-11-27T03:59:00;1.00;99.90
50162;DHT22;36061;48.116;11.612;2022-11-27T04:01:29;1.00;99.90
50162;DHT22;36061;48.116;11.612;2022-11-27T04:03:55;1.00;99.90
50162;DHT22;36061;48.116;11.612;2022-11-27T04:06:21;1.00;99.90
50162;DHT22;36061;48.116;11.612;2022-11-27T04:08:46;0.90;99.90
50162;DHT22;36061;48.116;11.612;2022-11-27T04:11:14;0.80;99.90
50162;DHT22;36061;48.116;11.612;2022-11-27T04:13:39;0.80;99.90
50162;DHT22;36061;48.116;11.612;2022-11-27T04:16:06;0.70;99.90
50162;DHT22;36061;48.116;11.612;2022-11-27T04:18:32;0.70;99.90
50162;DHT22;36061;48.116;11.612;2022-11-27T04:20:58;0.70;99.90
50162;DHT22;36061;48.116;11.612;2022-11-27T04:23:23;0.70;99.90
50162;DHT22;36061;48.116;11.612;2022-11-27T04:25:49;0.70;99.90
50162;DHT22;36061;48.116;11.612;2022-11-27T04:28:15;0.70;99.90
50162;DHT22;36061;48.116;11.612;2022-11-27T04:30:44;0.80;99.90
50162;DHT22;36061;48.116;11.612;2022-11-27T04:33:10;0.80;99.90
50162;DHT22;36061;48.116;11.612;2022-11-27T04:35:36;0.80;99.90
50162;DHT22;36061;48.116;11.612;2022-11-27T04:38:02;0.80;99.90
50162;DHT22;36061;48.116;11.612;2022-11-27T04:40:27;0.80;99.90
50162;DHT22;36061;48.116;11.612;2022-11-27T04:42:53;0.70;99.90
50162;DHT22;36061;48.116;11.612;2022-11-27T04:45:19;0.70;99.90
50162;DHT22;36061;48.116;11.612;2022-11-27T04:47:45;0.70;99.90
50162;DHT22;36061;48.116;11.612;2022-11-27T04:50:10;0.70;99.90
50162;DHT22;36061;48.116;11.612;2022-11-27T04:52:36;0.80;99.90
50162;DHT22;36061;48.116;11.612;2022-11-27T04:55:02;0.80;99.90
50162;DHT22;36061;48.116;11.612;2022-11-27T04:57:28;0.70;99.90
50162;DHT22;36061;48.116;11.612;2022-11-27T04:59:54;0.70;99.90
50162;DHT22;36061;48.116;11.612;2022-11-27T05:02:20;0.60;99.90
50162;DHT22;36061;48.116;11.612;2022-11-27T05:04:46;0.70;99.90
50162;DHT22;36061;48.116;11.612;2022-11-27T05:07:11;0.60;99.90
50162;DHT22;36061;48.116;11.612;2022-11-27T05:09:37;0.60;99.90
50162;DHT22;36061;48.116;11.612;2022-11-27T05:12:03;0.60;99.90
50162;DHT22;36061;48.116;11.612;2022-11-27T05:14:29;0.60;99.90
50162;DHT22;36061;48.116;11.612;2022-11-27T05:16:58;0.50;99.90
50162;DHT22;36061;48.116;11.612;2022-11-27T05:19:27;0.50;99.90
50162;DHT22;36061;48.116;11.612;2022-11-27T05:21:53;0.50;99.90
50162;DHT22;36061;48.116;11.612;2022-11-27T05:24:21;0.40;99.90
50162;DHT22;36061;48.116;11.612;2022-11-27T05:26:47;0.40;99.90
50162;DHT22;36061;48.116;11.612;2022-11-27T05:29:13;0.30;99.90
50162;DHT22;36061;48.116;11.612;2022-11-27T05:31:39;0.40;99.90
50162;DHT22;36061;48.116;11.612;2022-11-27T05:34:06;0.40;99.90
50162;DHT22;36061;48.116;11.612;2022-11-27T05:36:32;0.50;99.90
50162;DHT22;36061;48.116;11.612;2022-11-27T05:38:59;0.40;99.90
50162;DHT22;36061;48.116;11.612;2022-11-27T05:41:26;0.40;99.90
50162;DHT22;36061;48.116;11.612;2022-11-27T05:43:52;0.40;99.90
50162;DHT22;36061;48.116;11.612;2022-11-27T05:46:19;0.50;99.90
50162;DHT22;36061;48.116;11.612;2022-11-27T05:48:45;0.40;99.90
50162;DHT22;36061;48.116;11.612;2022-11-27T05:51:11;0.40;99.90
50162;DHT22;36061;48.116;11.612;2022-11-27T05:53:37;0.40;99.90
50162;DHT22;36061;48.116;11.612;2022-11-27T05:56:05;0.40;99.90
50162;DHT22;36061;48.116;11.612;2022-11-27T05:58:34;0.40;99.90
50162;DHT22;36061;48.116;11.612;2022-11-27T06:01:00;0.40;99.90
50162;DHT22;36061;48.116;11.612;2022-11-27T06:03:25;0.40;99.90
50162;DHT22;36061;48.116;11.612;2022-11-27T06:05:52;0.40;99.90
50162;DHT22;36061;48.116;11.612;2022-11-27T06:08:18;0.40;99.90
50162;DHT22;36061;48.116;11.612;2022-11-27T06:10:45;0.30;99.90
50162;DHT22;36061;48.116;11.612;2022-11-27T06:13:11;0.30;99.90
50162;DHT22;36061;48.116;11.612;2022-11-27T06:15:38;0.30;99.90
50162;DHT22;36061;48.116;11.612;2022-11-27T06:18:04;0.20;99.90
50162;DHT22;36061;48.116;11.612;2022-11-27T06:20:30;0.20;99.90
50162;DHT22;36061;48.116;11.612;2022-11-27T06:22:56;0.20;99.90
50162;DHT22;36061;48.116;11.612;2022-11-27T06:25:22;0.20;99.90
50162;DHT22;36061;48.116;11.612;2022-11-27T06:27:49;0.20;99.90
50162;DHT22;36061;48.116;11.612;2022-11-27T06:30:15;0.20;99.90
50162;DHT22;36061;48.116;11.612;2022-11-27T06:32:40;0.20;99.90
50162;DHT22;36061;48.116;11.612;2022-11-27T06:35:06;0.20;99.90
50162;DHT22;36061;48.116;11.612;2022-11-27T06:37:32;0.20;99.90
50162;DHT22;36061;48.116;11.612;2022-11-27T06:39:58;0.20;99.90
50162;DHT22;36061;48.116;11.612;2022-11-27T06:42:24;0.20;99.90
50162;DHT22;36061;48.116;11.612;2022-11-27T06:44:50;0.20;99.90
50162;DHT22;36061;48.116;11.612;2022-11-27T06:47:15;0.20;99.90
50162;DHT22;36061;48.116;11.612;2022-11-27T06:49:41;0.30;99.90
50162;DHT22;36061;48.116;11.612;2022-11-27T06:52:07;0.30;99.90
50162;DHT22;36061;48.116;11.612;2022-11-27T06:54:33;0.30;99.90
50162;DHT22;36061;48.116;11.612;2022-11-27T06:56:58;0.40;99.90
50162;DHT22;36061;48.116;11.612;2022-11-27T06:59:24;0.30;99.90
50162;DHT22;36061;48.116;11.612;2022-11-27T07:01:50;0.30;99.90
50162;DHT22;36061;48.116;11.612;2022-11-27T07:04:15;0.40;99.90
50162;DHT22;36061;48.116;11.612;2022-11-27T07:06:42;0.30;99.90
50162;DHT22;36061;48.116;11.612;2022-11-27T07:09:08;0.40;99.90
50162;DHT22;36061;48.116;11.612;2022-11-27T07:11:37;0.40;99.90
50162;DHT22;36061;48.116;11.612;2022-11-27T07:14:04;0.50;99.90
50162;DHT22;36061;48.116;11.612;2022-11-27T07:16:33;0.50;99.90
50162;DHT22;36061;48.116;11.612;2022-11-27T07:19:02;0.40;99.90
50162;DHT22;36061;48.116;11.612;2022-11-27T07:21:28;0.40;99.90
50162;DHT22;36061;48.116;11.612;2022-11-27T07:23:55;0.40;99.90
50162;DHT22;36061;48.116;11.612;2022-11-27T07:26:23;0.50;99.90
50162;DHT22;36061;48.116;11.612;2022-11-27T07:28:50;0.40;99.90
50162;DHT22;36061;48.116;11.612;2022-11-27T07:31:21;0.40;99.90
50162;DHT22;36061;48.116;11.612;2022-11-27T07:33:48;0.40;99.90
50162;DHT22;36061;48.116;11.612;2022-11-27T07:36:28;0.50;99.90
50162;DHT22;36061;48.116;11.612;2022-11-27T07:38:54;0.50;99.90
50162;DHT22;36061;48.116;11.612;2022-11-27T07:41:21;2.00;99.90
50162;DHT22;36061;48.116;11.612;2022-11-27T07:43:47;3.30;99.90
50162;DHT22;36061;48.116;11.612;2022-11-27T07:48:40;5.00;99.90
50162;DHT22;36061;48.116;11.612;2022-11-27T07:51:10;6.00;99.90
50162;DHT22;36061;48.116;11.612;2022-11-27T07:53:38;6.90;99.90
50162;DHT22;36061;48.116;11.612;2022-11-27T07:56:05;7.50;99.90
50162;DHT22;36061;48.116;11.612;2022-11-27T07:58:31;7.30;99.90
50162;DHT22;36061;48.116;11.612;2022-11-27T08:00:57;6.60;99.90
50162;DHT22;36061;48.116;11.612;2022-11-27T08:03:23;5.80;99.90
50162;DHT22;36061;48.116;11.612;2022-11-27T08:05:49;5.00;99.90
50162;DHT22;36061;48.116;11.612;2022-11-27T08:08:15;4.40;99.90
50162;DHT22;36061;48.116;11.612;2022-11-27T08:10:41;3.80;99.90
50162;DHT22;36061;48.116;11.612;2022-11-27T08:13:07;3.40;99.90
50162;DHT22;36061;48.116;11.612;2022-11-27T08:15:33;3.00;99.90
50162;DHT22;36061;48.116;11.612;2022-11-27T08:17:59;2.80;99.90
50162;DHT22;36061;48.116;11.612;2022-11-27T08:20:25;2.70;99.90
50162;DHT22;36061;48.116;11.612;2022-11-27T08:22:51;2.40;99.90
50162;DHT22;36061;48.116;11.612;2022-11-27T08:25:17;2.30;99.90
50162;DHT22;36061;48.116;11.612;2022-11-27T08:27:43;2.30;99.90
50162;DHT22;36061;48.116;11.612;2022-11-27T08:30:09;2.20;99.90
50162;DHT22;36061;48.116;11.612;2022-11-27T08:32:39;2.10;99.90
50162;DHT22;36061;48.116;11.612;2022-11-27T08:35:05;2.00;99.90
50162;DHT22;36061;48.116;11.612;2022-11-27T08:37:31;2.10;99.90
50162;DHT22;36061;48.116;11.612;2022-11-27T08:39:57;2.00;99.90
50162;DHT22;36061;48.116;11.612;2022-11-27T08:42:23;2.10;99.90
50162;DHT22;36061;48.116;11.612;2022-11-27T08:44:49;2.10;99.90
50162;DHT22;36061;48.116;11.612;2022-11-27T08:47:15;2.10;99.90
50162;DHT22;36061;48.116;11.612;2022-11-27T08:49:42;2.10;99.90
50162;DHT22;36061;48.116;11.612;2022-11-27T08:52:08;2.10;99.90
50162;DHT22;36061;48.116;11.612;2022-11-27T08:54:34;2.20;99.90
50162;DHT22;36061;48.116;11.612;2022-11-27T08:57:00;2.20;99.90
50162;DHT22;36061;48.116;11.612;2022-11-27T08:59:26;2.20;99.90
50162;DHT22;36061;48.116;11.612;2022-11-27T09:01:52;2.20;99.90
50162;DHT22;36061;48.116;11.612;2022-11-27T09:04:17;2.20;99.90
50162;DHT22;36061;48.116;11.612;2022-11-27T09:06:43;2.20;99.90
50162;DHT22;36061;48.116;11.612;2022-11-27T09:09:09;2.30;99.90
50162;DHT22;36061;48.116;11.612;2022-11-27T09:11:36;2.30;99.90
50162;DHT22;36061;48.116;11.612;2022-11-27T09:14:03;2.40;99.90
50162;DHT22;36061;48.116;11.612;2022-11-27T09:16:29;2.50;99.90
50162;DHT22;36061;48.116;11.612;2022-11-27T09:18:55;2.50;99.90
50162;DHT22;36061;48.116;11.612;2022-11-27T09:21:23;2.50;99.90
50162;DHT22;36061;48.116;11.612;2022-11-27T09:23:55;2.50;99.90
50162;DHT22;36061;48.116;11.612;2022-11-27T09:26:21;2.50;99.90
50162;DHT22;36061;48.116;11.612;2022-11-27T09:28:51;2.60;99.90
50162;DHT22;36061;48.116;11.612;2022-11-27T09:31:17;2.60;99.90
50162;DHT22;36061;48.116;11.612;2022-11-27T09:33:43;2.70;99.90
50162;DHT22;36061;48.116;11.612;2022-11-27T09:36:18;2.70;99.90
50162;DHT22;36061;48.116;11.612;2022-11-27T09:38:44;2.80;99.90
50162;DHT22;36061;48.116;11.612;2022-11-27T09:43:57;2.90;99.90
50162;DHT22;36061;48.116;11.612;2022-11-27T09:46:33;3.00;99.90
50162;DHT22;36061;48.116;11.612;2022-11-27T09:49:03;3.00;99.90
50162;DHT22;36061;48.116;11.612;2022-11-27T09:51:41;3.00;99.90
50162;DHT22;36061;48.116;11.612;2022-11-27T09:54:17;3.00;99.90
50162;DHT22;36061;48.116;11.612;2022-11-27T09:56:48;3.10;99.90
50162;DHT22;36061;48.116;11.612;2022-11-27T09:59:17;3.10;99.90
50162;DHT22;36061;48.116;11.612;2022-11-27T10:01:43;3.10;99.90
50162;DHT22;36061;48.116;11.612;2022-11-27T10:04:11;3.10;99.90
50162;DHT22;36061;48.116;11.612;2022-11-27T10:07:23;3.20;99.90
50162;DHT22;36061;48.116;11.612;2022-11-27T10:13:17;3.30;99.90
50162;DHT22;36061;48.116;11.612;2022-11-27T10:15:53;3.30;99.90
50162;DHT22;36061;48.116;11.612;2022-11-27T10:20:59;3.40;99.90
50162;DHT22;36061;48.116;11.612;2022-11-27T10:26:28;3.50;99.90
50162;DHT22;36061;48.116;11.612;2022-11-27T10:33:54;3.60;99.90
50162;DHT22;36061;48.116;11.612;2022-11-27T10:38:53;3.70;99.90
50162;DHT22;36061;48.116;11.612;2022-11-27T10:41:24;3.70;99.90
50162;DHT22;36061;48.116;11.612;2022-11-27T10:43:55;3.70;99.90
50162;DHT22;36061;48.116;11.612;2022-11-27T10:46:30;3.80;99.90
50162;DHT22;36061;48.116;11.612;2022-11-27T10:49:01;3.70;99.90
50162;DHT22;36061;48.116;11.612;2022-11-27T10:51:32;3.70;99.90
50162;DHT22;36061;48.116;11.612;2022-11-27T10:54:03;3.70;99.90
50162;DHT22;36061;48.116;11.612;2022-11-27T10:59:26;3.80;99.90
50162;DHT22;36061;48.116;11.612;2022-11-27T11:01:54;3.80;99.90
50162;DHT22;36061;48.116;11.612;2022-11-27T11:04:27;3.90;99.90
50162;DHT22;36061;48.116;11.612;2022-11-27T11:06:53;3.90;99.90
50162;DHT22;36061;48.116;11.612;2022-11-27T11:09:24;4.00;99.90
50162;DHT22;36061;48.116;11.612;2022-11-27T11:11:50;4.00;99.90
50162;DHT22;36061;48.116;11.612;2022-11-27T11:14:25;4.00;99.90
50162;DHT22;36061;48.116;11.612;2022-11-27T11:16:53;4.10;99.90
50162;DHT22;36061;48.116;11.612;2022-11-27T11:21:51;4.20;99.90
50162;DHT22;36061;48.116;11.612;2022-11-27T11:24:28;4.30;99.90
50162;DHT22;36061;48.116;11.612;2022-11-27T11:32:23;4.30;99.90
50162;DHT22;36061;48.116;11.612;2022-11-27T11:37:31;4.40;99.90
50162;DHT22;36061;48.116;11.612;2022-11-27T11:42:31;4.40;99.90
50162;DHT22;36061;48.116;11.612;2022-11-27T11:45:24;4.50;99.90
50162;DHT22;36061;48.116;11.612;2022-11-27T11:48:50;4.50;99.90
50162;DHT22;36061;48.116;11.612;2022-11-27T11:50:53;4.60;99.90
50162;DHT22;36061;48.116;11.612;2022-11-27T11:53:23;4.70;99.90
50162;DHT22;36061;48.116;11.612;2022-11-27T11:58:53;4.70;99.90
50162;DHT22;36061;48.116;11.612;2022-11-27T12:07:07;4.60;99.90
50162;DHT22;36061;48.116;11.612;2022-11-27T12:18:05;4.30;99.90
50162;DHT22;36061;48.116;11.612;2022-11-27T12:23:52;4.10;99.90
50162;DHT22;36061;48.116;11.612;2022-11-27T12:27:10;4.10;99.90
50162;DHT22;36061;48.116;11.612;2022-11-27T12:30:24;4.00;99.90
50162;DHT22;36061;48.116;11.612;2022-11-27T12:32:58;3.90;99.90
50162;DHT22;36061;48.116;11.612;2022-11-27T12:35:42;3.80;99.90
50162;DHT22;36061;48.116;11.612;2022-11-27T12:43:50;3.90;99.90
50162;DHT22;36061;48.116;11.612;2022-11-27T12:46:47;3.70;99.90
50162;DHT22;36061;48.116;11.612;2022-11-27T12:51:54;3.50;99.90
50162;DHT22;36061;48.116;11.612;2022-11-27T12:54:52;3.40;99.90
50162;DHT22;36061;48.116;11.612;2022-11-27T12:57:34;3.40;99.90
50162;DHT22;36061;48.116;11.612;2022-11-27T13:00:05;3.30;99.90
50162;DHT22;36061;48.116;11.612;2022-11-27T13:02:41;3.30;99.90
50162;DHT22;36061;48.116;11.612;2022-11-27T13:07:45;3.30;99.90
50162;DHT22;36061;48.116;11.612;2022-11-27T13:10:34;3.30;99.90
50162;DHT22;36061;48.116;11.612;2022-11-27T13:13:21;3.50;99.90
50162;DHT22;36061;48.116;11.612;2022-11-27T13:15:55;3.30;99.90
50162;DHT22;36061;48.116;11.612;2022-11-27T13:18:36;3.30;99.90
50162;DHT22;36061;48.116;11.612;2022-11-27T13:21:08;3.30;99.90
50162;DHT22;36061;48.116;11.612;2022-11-27T13:23:36;3.30;99.90
50162;DHT22;36061;48.116;11.612;2022-11-27T13:26:14;3.30;99.90
50162;DHT22;36061;48.116;11.612;2022-11-27T13:28:52;3.40;99.90
50162;DHT22;36061;48.116;11.612;2022-11-27T13:31:22;3.30;99.90
50162;DHT22;36061;48.116;11.612;2022-11-27T13:33:50;3.40;99.90
50162;DHT22;36061;48.116;11.612;2022-11-27T13:36:40;3.40;99.90
50162;DHT22;36061;48.116;11.612;2022-11-27T13:39:21;3.40;99.90
50162;DHT22;36061;48.116;11.612;2022-11-27T13:41:48;3.40;99.90
50162;DHT22;36061;48.116;11.612;2022-11-27T13:44:27;3.30;99.90
50162;DHT22;36061;48.116;11.612;2022-11-27T13:46:59;3.30;99.90
50162;DHT22;36061;48.116;11.612;2022-11-27T13:49:34;3.30;99.90
50162;DHT22;36061;48.116;11.612;2022-11-27T13:52:18;3.40;99.90
50162;DHT22;36061;48.116;11.612;2022-11-27T13:55:02;3.40;99.90
50162;DHT22;36061;48.116;11.612;2022-11-27T13:57:31;3.40;99.90
50162;DHT22;36061;48.116;11.612;2022-11-27T14:02:49;3.30;99.90
50162;DHT22;36061;48.116;11.612;2022-11-27T14:05:32;3.30;99.90
50162;DHT22;36061;48.116;11.612;2022-11-27T14:07:58;3.30;99.90
50162;DHT22;36061;48.116;11.612;2022-11-27T14:10:30;3.30;99.90
50162;DHT22;36061;48.116;11.612;2022-11-27T14:13:05;3.30;99.90
50162;DHT22;36061;48.116;11.612;2022-11-27T14:15:36;3.30;99.90
50162;DHT22;36061;48.116;11.612;2022-11-27T14:18:06;3.30;99.90
50162;DHT22;36061;48.116;11.612;2022-11-27T14:20:36;3.30;99.90
50162;DHT22;36061;48.116;11.612;2022-11-27T14:23:02;3.40;99.90
50162;DHT22;36061;48.116;11.612;2022-11-27T14:25:31;3.40;99.90
50162;DHT22;36061;48.116;11.612;2022-11-27T14:30:49;3.40;99.90
50162;DHT22;36061;48.116;11.612;2022-11-27T14:33:21;3.40;99.90
50162;DHT22;36061;48.116;11.612;2022-11-27T14:35:49;3.40;99.90
50162;DHT22;36061;48.116;11.612;2022-11-27T14:38:15;3.30;99.90
50162;DHT22;36061;48.116;11.612;2022-11-27T14:40:41;3.20;99.90
50162;DHT22;36061;48.116;11.612;2022-11-27T14:45:50;3.10;99.90
50162;DHT22;36061;48.116;11.612;2022-11-27T14:48:24;3.00;99.90
50162;DHT22;36061;48.116;11.612;2022-11-27T14:50:53;3.10;99.90
50162;DHT22;36061;48.116;11.612;2022-11-27T14:53:21;3.10;99.90
50162;DHT22;36061;48.116;11.612;2022-11-27T14:55:50;3.00;99.90
50162;DHT22;36061;48.116;11.612;2022-11-27T14:58:19;3.00;99.90
50162;DHT22;36061;48.116;11.612;2022-11-27T15:00:58;2.80;99.90
50162;DHT22;36061;48.116;11.612;2022-11-27T15:03:25;2.80;99.90
50162;DHT22;36061;48.116;11.612;2022-11-27T15:06:02;2.80;99.90
50162;DHT22;36061;48.116;11.612;2022-11-27T15:08:32;2.80;99.90
50162;DHT22;36061;48.116;11.612;2022-11-27T15:10:59;2.80;99.90
50162;DHT22;36061;48.116;11.612;2022-11-27T15:13:28;2.70;99.90
50162;DHT22;36061;48.116;11.612;2022-11-27T15:16:25;2.70;99.90
50162;DHT22;36061;48.116;11.612;2022-11-27T15:19:03;2.60;99.90
50162;DHT22;36061;48.116;11.612;2022-11-27T15:21:33;2.60;99.90
50162;DHT22;36061;48.116;11.612;2022-11-27T15:24:00;2.60;99.90
50162;DHT22;36061;48.116;11.612;2022-11-27T15:26:33;2.50;99.90
50162;DHT22;36061;48.116;11.612;2022-11-27T15:29:00;2.50;99.90
50162;DHT22;36061;48.116;11.612;2022-11-27T15:31:32;2.50;99.90
50162;DHT22;36061;48.116;11.612;2022-11-27T15:36:43;2.50;99.90
50162;DHT22;36061;48.116;11.612;2022-11-27T15:39:36;2.50;99.90
50162;DHT22;36061;48.116;11.612;2022-11-27T15:42:03;2.40;99.90
50162;DHT22;36061;48.116;11.612;2022-11-27T15:44:33;2.40;99.90
50162;DHT22;36061;48.116;11.612;2022-11-27T15:47:00;2.30;99.90
50162;DHT22;36061;48.116;11.612;2022-11-27T15:49:27;2.30;99.90
50162;DHT22;36061;48.116;11.612;2022-11-27T15:51:54;2.40;99.90
50162;DHT22;36061;48.116;11.612;2022-11-27T15:54:21;2.30;99.90
50162;DHT22;36061;48.116;11.612;2022-11-27T15:56:48;2.40;99.90
50162;DHT22;36061;48.116;11.612;2022-11-27T15:59:14;2.30;99.90
50162;DHT22;36061;48.116;11.612;2022-11-27T16:01:40;2.20;99.90
50162;DHT22;36061;48.116;11.612;2022-11-27T16:04:06;2.10;99.90
50162;DHT22;36061;48.116;11.612;2022-11-27T16:06:35;2.00;99.90
50162;DHT22;36061;48.116;11.612;2022-11-27T16:09:03;2.00;99.90
50162;DHT22;36061;48.116;11.612;2022-11-27T16:11:31;2.00;99.90
50162;DHT22;36061;48.116;11.612;2022-11-27T16:13:57;2.00;99.90
50162;DHT22;36061;48.116;11.612;2022-11-27T16:16:23;2.00;99.90
50162;DHT22;36061;48.116;11.612;2022-11-27T16:18:49;2.00;99.90
50162;DHT22;36061;48.116;11.612;2022-11-27T16:21:19;2.00;99.90
50162;DHT22;36061;48.116;11.612;2022-11-27T16:23:44;2.00;99.90
50162;DHT22;36061;48.116;11.612;2022-11-27T16:26:13;2.00;99.90
50162;DHT22;36061;48.116;11.612;2022-11-27T16:28:39;2.00;99.90
50162;DHT22;36061;48.116;11.612;2022-11-27T16:31:11;2.00;99.90
50162;DHT22;36061;48.116;11.612;2022-11-27T16:33:40;2.00;99.90
50162;DHT22;36061;48.116;11.612;2022-11-27T16:36:09;2.00;99.90
50162;DHT22;36061;48.116;11.612;2022-11-27T16:38:38;2.10;99.90
50162;DHT22;36061;48.116;11.612;2022-11-27T16:41:08;2.10;99.90
50162;DHT22;36061;48.116;11.612;2022-11-27T16:43:37;2.00;99.90
50162;DHT22;36061;48.116;11.612;2022-11-27T16:46:09;2.00;99.90
50162;DHT22;36061;48.116;11.612;2022-11-27T16:48:37;2.00;99.90
50162;DHT22;36061;48.116;11.612;2022-11-27T16:51:13;1.90;99.90
50162;DHT22;36061;48.116;11.612;2022-11-27T16:53:41;1.90;99.90
50162;DHT22;36061;48.116;11.612;2022-11-27T16:56:08;1.90;99.90
50162;DHT22;36061;48.116;11.612;2022-11-27T16:58:36;1.90;99.90
50162;DHT22;36061;48.116;11.612;2022-11-27T17:01:27;1.90;99.90
50162;DHT22;36061;48.116;11.612;2022-11-27T17:03:52;2.00;99.90
50162;DHT22;36061;48.116;11.612;2022-11-27T17:06:25;1.90;99.90
50162;DHT22;36061;48.116;11.612;2022-11-27T17:08:55;1.90;99.90
50162;DHT22;36061;48.116;11.612;2022-11-27T17:11:26;1.80;99.90
50162;DHT22;36061;48.116;11.612;2022-11-27T17:13:57;1.80;99.90
50162;DHT22;36061;48.116;11.612;2022-11-27T17:16:24;1.80;99.90
50162;DHT22;36061;48.116;11.612;2022-11-27T17:18:51;1.70;99.90
50162;DHT22;36061;48.116;11.612;2022-11-27T17:21:21;1.70;99.90
50162;DHT22;36061;48.116;11.612;2022-11-27T17:23:49;1.70;99.90
50162;DHT22;36061;48.116;11.612;2022-11-27T17:26:18;1.70;99.90
50162;DHT22;36061;48.116;11.612;2022-11-27T17:28:45;1.70;99.90
50162;DHT22;36061;48.116;11.612;2022-11-27T17:31:14;1.70;99.90
50162;DHT22;36061;48.116;11.612;2022-11-27T17:33:41;1.70;99.90
50162;DHT22;36061;48.116;11.612;2022-11-27T17:36:07;1.70;99.90